createdAt,value
2022-11-09T00:01:47.449Z,100018.00
2022-11-09T00:04:16.531Z,100012.00
2022-11-09T00:06:44.496Z,100007.00
2022-11-09T00:09:12.260Z,100007.00
2022-11-09T00:11:40.112Z,100001.00
2022-11-09T00:14:07.901Z,99998.00
2022-11-09T00:16:35.730Z,99994.00
2022-11-09T00:19:03.447Z,99990.00
2022-11-09T00:21:32.580Z,99989.00
2022-11-09T00:24:00.366Z,99985.00
2022-11-09T00:26:28.095Z,99983.00
2022-11-09T00:28:55.913Z,99988.00
2022-11-09T00:31:25.332Z,99992.00
2022-11-09T00:33:55.594Z,99984.00
2022-11-09T00:36:24.831Z,99984.00
2022-11-09T00:38:55.305Z,99986.00
2022-11-09T00:41:23.348Z,99987.00
2022-11-09T00:43:51.740Z,99990.00
2022-11-09T00:46:19.832Z,99989.00
2022-11-09T00:48:48.207Z,99969.00
2022-11-09T00:51:16.255Z,99965.00
2022-11-09T00:53:44.132Z,99975.00
2022-11-09T00:56:14.381Z,99966.00
2022-11-09T00:58:42.469Z,99967.00
2022-11-09T01:01:12.216Z,99973.00
2022-11-09T01:03:40.378Z,99968.00
2022-11-09T01:06:08.629Z,99974.00
2022-11-09T01:08:37.321Z,99973.00
2022-11-09T01:11:07.260Z,99969.00
2022-11-09T01:13:37.313Z,99976.00
2022-11-09T01:16:07.602Z,99971.00
2022-11-09T01:18:35.637Z,99970.00
2022-11-09T01:21:04.772Z,99972.00
2022-11-09T01:23:33.036Z,99966.00
2022-11-09T01:26:01.657Z,99966.00
2022-11-09T01:28:29.428Z,99961.00
2022-11-09T01:31:02.418Z,99963.00
2022-11-09T01:33:30.697Z,99968.00
2022-11-09T01:36:03.022Z,99970.00
2022-11-09T01:38:30.766Z,99968.00
2022-11-09T01:40:58.540Z,99959.00
2022-11-09T01:43:26.659Z,99961.00
2022-11-09T01:45:57.645Z,99961.00
2022-11-09T01:48:33.682Z,99963.00
2022-11-09T01:51:06.872Z,99958.00
2022-11-09T01:53:38.381Z,99958.00
2022-11-09T01:56:09.209Z,99962.00
2022-11-09T01:58:41.976Z,99958.00
2022-11-09T02:01:11.351Z,99962.00
2022-11-09T02:03:43.696Z,99951.00
2022-11-09T02:06:15.124Z,99958.00
2022-11-09T02:08:43.977Z,99957.00
2022-11-09T02:11:13.287Z,99949.00
2022-11-09T02:13:45.498Z,99949.00
2022-11-09T02:16:14.952Z,99947.00
2022-11-09T02:18:53.043Z,99955.00
2022-11-09T02:21:23.738Z,99952.00
2022-11-09T02:23:52.212Z,99958.00
2022-11-09T02:26:24.571Z,99960.00
2022-11-09T02:28:54.309Z,99966.00
2022-11-09T02:31:26.070Z,99958.00
2022-11-09T02:34:00.963Z,99956.00
2022-11-09T02:36:30.117Z,99951.00
2022-11-09T02:38:58.810Z,99954.00
2022-11-09T02:41:27.617Z,99954.00
2022-11-09T02:43:56.239Z,99950.00
2022-11-09T02:46:26.573Z,99941.00
2022-11-09T02:48:54.307Z,99941.00
2022-11-09T02:51:22.023Z,99942.00
2022-11-09T02:53:51.095Z,99938.00
2022-11-09T02:56:18.865Z,99945.00
2022-11-09T02:58:46.613Z,99940.00
2022-11-09T03:01:14.372Z,99946.00
2022-11-09T03:03:42.189Z,99943.00
2022-11-09T03:06:10.037Z,99927.00
2022-11-09T03:08:37.800Z,99934.00
2022-11-09T03:11:07.183Z,99940.00
2022-11-09T03:13:35.644Z,99937.00
2022-11-09T03:16:06.521Z,99939.00
2022-11-09T03:18:34.426Z,99937.00
2022-11-09T03:21:03.137Z,99934.00
2022-11-09T03:23:30.970Z,99935.00
2022-11-09T03:25:58.871Z,99929.00
2022-11-09T03:28:28.071Z,99938.00
2022-11-09T03:30:55.921Z,99943.00
2022-11-09T03:33:23.687Z,99956.00
2022-11-09T03:35:52.215Z,99957.00
2022-11-09T03:38:20.172Z,99951.00
2022-11-09T03:40:47.952Z,99951.00
2022-11-09T03:43:15.851Z,99955.00
2022-11-09T03:45:45.062Z,99946.00
2022-11-09T03:48:12.760Z,99950.00
2022-11-09T03:50:40.560Z,99947.00
2022-11-09T03:53:09.546Z,99945.00
2022-11-09T03:55:37.992Z,99948.00
2022-11-09T03:58:06.423Z,99954.00
2022-11-09T04:00:35.835Z,99951.00
2022-11-09T04:03:04.991Z,99947.00
2022-11-09T04:05:32.725Z,99954.00
2022-11-09T04:08:00.454Z,99952.00
2022-11-09T04:10:28.325Z,99948.00
2022-11-09T04:12:56.056Z,99945.00
2022-11-09T04:15:23.926Z,99941.00
2022-11-09T04:17:58.721Z,99933.00
2022-11-09T04:20:29.027Z,99930.00
2022-11-09T04:22:57.621Z,99928.00
2022-11-09T04:25:25.898Z,99938.00
2022-11-09T04:27:56.920Z,99929.00
2022-11-09T04:30:27.784Z,99927.00
2022-11-09T04:32:55.753Z,99935.00
2022-11-09T04:35:23.704Z,99930.00
2022-11-09T04:37:56.913Z,99937.00
2022-11-09T04:40:26.107Z,99940.00
2022-11-09T04:42:54.104Z,99924.00
2022-11-09T04:45:22.621Z,99940.00
2022-11-09T04:47:50.340Z,99951.00
2022-11-09T04:50:18.217Z,99944.00
2022-11-09T04:52:45.957Z,99940.00
2022-11-09T04:55:15.068Z,99946.00
2022-11-09T04:57:42.787Z,99959.00
2022-11-09T05:00:11.689Z,99952.00
2022-11-09T05:02:39.425Z,99962.00
2022-11-09T05:05:08.264Z,99954.00
2022-11-09T05:07:35.981Z,99954.00
2022-11-09T05:10:03.682Z,99953.00
2022-11-09T05:12:32.782Z,99957.00
2022-11-09T05:15:00.535Z,99955.00
2022-11-09T05:17:28.252Z,99959.00
2022-11-09T05:19:56.208Z,99956.00
2022-11-09T05:22:41.248Z,99965.00
2022-11-09T05:25:09.655Z,99967.00
2022-11-09T05:27:39.370Z,99961.00
2022-11-09T05:30:08.471Z,99957.00
2022-11-09T05:32:37.605Z,99967.00
2022-11-09T05:35:05.867Z,99964.00
2022-11-09T05:37:33.611Z,99954.00
2022-11-09T05:40:01.445Z,99967.00
2022-11-09T05:42:29.160Z,99960.00
2022-11-09T05:45:10.902Z,99964.00
2022-11-09T05:47:46.473Z,99985.00
2022-11-09T05:50:17.764Z,99980.00
2022-11-09T05:52:45.491Z,99985.00
2022-11-09T05:55:13.255Z,99983.00
2022-11-09T05:57:41.091Z,99983.00
2022-11-09T06:00:11.765Z,99992.00
2022-11-09T06:02:39.486Z,99988.00
2022-11-09T06:05:07.755Z,99989.00
2022-11-09T06:07:35.501Z,100005.00
2022-11-09T06:10:03.328Z,99997.00
2022-11-09T06:12:31.041Z,100004.00
2022-11-09T06:14:58.810Z,100005.00
2022-11-09T06:17:28.204Z,100015.00
2022-11-09T06:19:55.939Z,100007.00
2022-11-09T06:22:23.706Z,100011.00
2022-11-09T06:24:51.488Z,100015.00
2022-11-09T06:27:19.214Z,100016.00
2022-11-09T06:29:47.086Z,100004.00
2022-11-09T06:32:14.814Z,100002.00
2022-11-09T06:34:44.291Z,100017.00
2022-11-09T06:37:12.036Z,100022.00
2022-11-09T06:39:39.771Z,100009.00
2022-11-09T06:42:07.574Z,100023.00
2022-11-09T06:44:35.378Z,100010.00
2022-11-09T06:47:03.132Z,100015.00
2022-11-09T06:49:30.967Z,100020.00
2022-11-09T06:52:00.019Z,100012.00
2022-11-09T06:54:28.082Z,100012.00
2022-11-09T06:56:56.038Z,100011.00
2022-11-09T06:59:24.021Z,100011.00
2022-11-09T07:01:52.029Z,100010.00
2022-11-09T07:04:19.814Z,100015.00
2022-11-09T07:06:47.633Z,100020.00
2022-11-09T07:09:16.777Z,100016.00
2022-11-09T07:11:44.549Z,100016.00
2022-11-09T07:14:12.251Z,100017.00
2022-11-09T07:16:40.181Z,100031.00
2022-11-09T07:19:07.928Z,100037.00
2022-11-09T07:21:35.665Z,100035.00
2022-11-09T07:24:03.425Z,100033.00
2022-11-09T07:26:33.025Z,100042.00
2022-11-09T07:29:00.759Z,100032.00
2022-11-09T07:31:29.374Z,100028.00
2022-11-09T07:33:58.344Z,100042.00
2022-11-09T07:36:26.098Z,100040.00
2022-11-09T07:38:53.837Z,100023.00
2022-11-09T07:41:21.646Z,100031.00
2022-11-09T07:43:51.107Z,100025.00
2022-11-09T07:46:18.972Z,100028.00
2022-11-09T07:48:46.666Z,100024.00
2022-11-09T07:51:14.416Z,100025.00
2022-11-09T07:53:42.133Z,100027.00
2022-11-09T07:56:10.157Z,100031.00
2022-11-09T07:58:37.957Z,100032.00
2022-11-09T08:01:10.131Z,100028.00
2022-11-09T08:03:38.110Z,100034.00
2022-11-09T08:06:06.021Z,100044.00
2022-11-09T08:08:33.781Z,100042.00
2022-11-09T08:11:01.697Z,100038.00
2022-11-09T08:13:29.389Z,100038.00
2022-11-09T08:15:57.491Z,100041.00
2022-11-09T08:18:26.579Z,100041.00
2022-11-09T08:20:54.311Z,100045.00
2022-11-09T08:23:22.614Z,100049.00
2022-11-09T08:25:51.791Z,100064.00
2022-11-09T08:28:19.897Z,100052.00
2022-11-09T08:30:57.025Z,100047.00
2022-11-09T08:33:26.274Z,100058.00
2022-11-09T08:35:54.100Z,100055.00
2022-11-09T08:38:22.393Z,100051.00
2022-11-09T08:40:50.526Z,100056.00
2022-11-09T08:43:18.459Z,100055.00
2022-11-09T08:45:46.203Z,100063.00
2022-11-09T08:48:14.111Z,100052.00
2022-11-09T08:50:43.189Z,100065.00
2022-11-09T08:53:10.916Z,100062.00
2022-11-09T08:55:38.641Z,100052.00
2022-11-09T08:58:06.375Z,100059.00
2022-11-09T09:00:34.444Z,100067.00
2022-11-09T09:03:05.708Z,100059.00
2022-11-09T09:05:34.331Z,100067.00
2022-11-09T09:08:04.832Z,100075.00
2022-11-09T09:10:35.414Z,100073.00
2022-11-09T09:13:03.553Z,100067.00
2022-11-09T09:15:31.511Z,100063.00
2022-11-09T09:18:00.684Z,100062.00
2022-11-09T09:20:28.438Z,100065.00
2022-11-09T09:22:59.167Z,100077.00
2022-11-09T09:25:28.492Z,100077.00
2022-11-09T09:27:56.545Z,100089.00
2022-11-09T09:30:24.287Z,100079.00
2022-11-09T09:32:52.030Z,100085.00
2022-11-09T09:35:19.771Z,100084.00
2022-11-09T09:37:47.510Z,100090.00
2022-11-09T09:40:25.925Z,100086.00
2022-11-09T09:42:56.041Z,100094.00
2022-11-09T09:45:27.001Z,100097.00
2022-11-09T09:47:59.896Z,100104.00
2022-11-09T09:50:30.749Z,100103.00
2022-11-09T09:53:23.213Z,100103.00
2022-11-09T09:55:54.623Z,100100.00
2022-11-09T09:58:27.555Z,100096.00
2022-11-09T10:01:00.069Z,100103.00
2022-11-09T10:03:27.860Z,100103.00
2022-11-09T10:06:02.720Z,100102.00
2022-11-09T10:08:41.417Z,100123.00
2022-11-09T10:11:18.088Z,100113.00
2022-11-09T10:14:02.048Z,100110.00
2022-11-09T10:16:40.165Z,100106.00
2022-11-09T10:19:29.196Z,100111.00
2022-11-09T10:22:04.028Z,100112.00
2022-11-09T10:24:58.783Z,100121.00
2022-11-09T10:27:36.221Z,100109.00
2022-11-09T10:30:13.381Z,100128.00
2022-11-09T10:32:42.644Z,100133.00
2022-11-09T10:35:18.338Z,100124.00
2022-11-09T10:37:48.950Z,100113.00
2022-11-09T10:40:20.668Z,100117.00
2022-11-09T10:42:51.274Z,100121.00
2022-11-09T10:45:29.222Z,100112.00
2022-11-09T10:47:57.022Z,100113.00
2022-11-09T10:50:32.202Z,100103.00
2022-11-09T10:53:11.924Z,100106.00
2022-11-09T10:55:40.096Z,100108.00
2022-11-09T10:58:23.335Z,100113.00
2022-11-09T11:01:07.589Z,100105.00
2022-11-09T11:03:37.413Z,100120.00
2022-11-09T11:06:06.909Z,100112.00
2022-11-09T11:08:38.665Z,100102.00
2022-11-09T11:11:33.855Z,100110.00
2022-11-09T11:14:15.865Z,100107.00
2022-11-09T11:16:48.327Z,100117.00
2022-11-09T11:19:34.054Z,100101.00
2022-11-09T11:22:22.683Z,100099.00
2022-11-09T11:24:55.736Z,100107.00
2022-11-09T11:27:28.912Z,100099.00
2022-11-09T11:30:02.970Z,100090.00
2022-11-09T11:32:33.060Z,100101.00
2022-11-09T11:35:01.890Z,100099.00
2022-11-09T11:37:47.318Z,100102.00
2022-11-09T11:40:23.142Z,100108.00
2022-11-09T11:43:05.720Z,100101.00
2022-11-09T11:45:41.075Z,100094.00
2022-11-09T11:48:31.130Z,100099.00
2022-11-09T11:51:08.677Z,100101.00
2022-11-09T11:53:52.257Z,100097.00
2022-11-09T11:56:24.138Z,100088.00
2022-11-09T11:59:10.961Z,100102.00
2022-11-09T12:01:52.240Z,100106.00
2022-11-09T12:04:41.328Z,100103.00
2022-11-09T12:07:27.702Z,100088.00
2022-11-09T12:10:15.165Z,100091.00
2022-11-09T12:12:49.648Z,100097.00
2022-11-09T12:15:37.377Z,100094.00
2022-11-09T12:18:15.212Z,100098.00
2022-11-09T12:20:54.332Z,100092.00
2022-11-09T12:23:40.074Z,100095.00
2022-11-09T12:26:24.060Z,100089.00
2022-11-09T12:29:07.890Z,100093.00
2022-11-09T12:31:49.364Z,100092.00
2022-11-09T12:34:24.445Z,100068.00
2022-11-09T12:36:58.733Z,100085.00
2022-11-09T12:39:30.504Z,100084.00
2022-11-09T12:42:05.055Z,100081.00
2022-11-09T12:44:36.165Z,100093.00
2022-11-09T12:47:08.335Z,100092.00
2022-11-09T12:49:37.776Z,100096.00
2022-11-09T12:52:11.709Z,100093.00
2022-11-09T12:54:44.008Z,100088.00
2022-11-09T12:57:15.732Z,100090.00
2022-11-09T12:59:49.923Z,100089.00
2022-11-09T13:02:25.154Z,100098.00
2022-11-09T13:04:58.846Z,100094.00
2022-11-09T13:07:38.947Z,100088.00
2022-11-09T13:10:20.215Z,100085.00
2022-11-09T13:12:48.090Z,100080.00
2022-11-09T13:15:27.331Z,100088.00
2022-11-09T13:18:03.025Z,100091.00
2022-11-09T13:20:55.277Z,100083.00
2022-11-09T13:23:59.099Z,100086.00
2022-11-09T13:26:26.474Z,100087.00
2022-11-09T13:29:25.395Z,100093.00
2022-11-09T13:32:24.602Z,100089.00
2022-11-09T13:34:56.090Z,100096.00
2022-11-09T13:37:57.512Z,100088.00
2022-11-09T13:40:44.689Z,100099.00
2022-11-09T13:43:20.377Z,100113.00
2022-11-09T13:45:50.682Z,100114.00
2022-11-09T13:48:39.838Z,100115.00
2022-11-09T13:51:10.155Z,100110.00
2022-11-09T13:53:56.170Z,100120.00
2022-11-09T13:56:35.099Z,100121.00
2022-11-09T13:59:10.975Z,100110.00
2022-11-09T14:01:48.489Z,100123.00
2022-11-09T14:04:25.289Z,100114.00
2022-11-09T14:07:00.563Z,100121.00
2022-11-09T14:09:29.519Z,100128.00
2022-11-09T14:12:17.060Z,100119.00
2022-11-09T14:15:07.427Z,100117.00
2022-11-09T14:17:42.952Z,100125.00
2022-11-09T14:20:23.242Z,100115.00
2022-11-09T14:22:52.506Z,100122.00
2022-11-09T14:25:22.096Z,100129.00
2022-11-09T14:27:57.272Z,100131.00
2022-11-09T14:30:27.085Z,100131.00
2022-11-09T14:32:56.842Z,100136.00
2022-11-09T14:35:27.676Z,100148.00
2022-11-09T14:37:56.630Z,100143.00
2022-11-09T14:40:27.826Z,100147.00
2022-11-09T14:42:59.637Z,100147.00
2022-11-09T14:45:28.631Z,100148.00
2022-11-09T14:47:58.859Z,100144.00
2022-11-09T14:50:28.912Z,100147.00
2022-11-09T14:52:57.516Z,100159.00
2022-11-09T14:55:26.657Z,100153.00
2022-11-09T14:57:57.874Z,100155.00
2022-11-09T15:00:32.276Z,100165.00
2022-11-09T15:03:01.316Z,100166.00
2022-11-09T15:05:35.874Z,100170.00
2022-11-09T15:08:03.763Z,100176.00
2022-11-09T15:10:32.645Z,100178.00
2022-11-09T15:13:04.207Z,100176.00
2022-11-09T15:15:35.566Z,100172.00
2022-11-09T15:18:03.535Z,100171.00
2022-11-09T15:20:33.807Z,100182.00
2022-11-09T15:23:06.794Z,100176.00
2022-11-09T15:25:36.439Z,100185.00
2022-11-09T15:28:20.528Z,100175.00
2022-11-09T15:31:05.279Z,100180.00
2022-11-09T15:33:45.201Z,100179.00
2022-11-09T15:36:29.522Z,100185.00
2022-11-09T15:39:00.864Z,100195.00
2022-11-09T15:41:29.591Z,100170.00
2022-11-09T15:43:59.200Z,100179.00
2022-11-09T15:46:30.034Z,100193.00
2022-11-09T15:49:00.085Z,100183.00
2022-11-09T15:51:27.769Z,100191.00
2022-11-09T15:53:55.545Z,100182.00
2022-11-09T15:56:25.229Z,100201.00
2022-11-09T15:58:53.480Z,100209.00
2022-11-09T16:01:22.642Z,100207.00
2022-11-09T16:03:50.391Z,100218.00
2022-11-09T16:06:22.347Z,100215.00
2022-11-09T16:08:51.055Z,100223.00
2022-11-09T16:11:19.131Z,100226.00
2022-11-09T16:13:46.812Z,100222.00
2022-11-09T16:16:15.850Z,100226.00
2022-11-09T16:18:44.917Z,100227.00
2022-11-09T16:21:13.956Z,100233.00
2022-11-09T16:23:41.731Z,100246.00
2022-11-09T16:26:12.386Z,100237.00
2022-11-09T16:28:40.794Z,100238.00
2022-11-09T16:31:08.691Z,100253.00
2022-11-09T16:33:37.109Z,100244.00
2022-11-09T16:36:09.906Z,100240.00
2022-11-09T16:38:41.112Z,100246.00
2022-11-09T16:41:08.931Z,100235.00
2022-11-09T16:43:37.769Z,100242.00
2022-11-09T16:46:06.021Z,100240.00
2022-11-09T16:48:34.922Z,100247.00
2022-11-09T16:51:03.374Z,100236.00
2022-11-09T16:53:32.546Z,100250.00
2022-11-09T16:56:00.268Z,100242.00
2022-11-09T16:58:28.012Z,100251.00
2022-11-09T17:01:09.985Z,100245.00
2022-11-09T17:03:39.641Z,100269.00
2022-11-09T17:06:10.857Z,100266.00
2022-11-09T17:08:40.305Z,100263.00
2022-11-09T17:11:09.419Z,100261.00
2022-11-09T17:13:37.535Z,100261.00
2022-11-09T17:16:07.409Z,100274.00
2022-11-09T17:18:35.158Z,100274.00
2022-11-09T17:21:02.852Z,100275.00
2022-11-09T17:23:31.500Z,100283.00
2022-11-09T17:26:02.831Z,100283.00
2022-11-09T17:28:30.690Z,100284.00
2022-11-09T17:30:58.477Z,100286.00
2022-11-09T17:33:26.256Z,100284.00
2022-11-09T17:35:59.806Z,100290.00
2022-11-09T17:38:27.563Z,100296.00
2022-11-09T17:41:04.218Z,100292.00
2022-11-09T17:43:33.067Z,100288.00
2022-11-09T17:46:05.004Z,100288.00
2022-11-09T17:48:33.103Z,100306.00
2022-11-09T17:51:01.208Z,100306.00
2022-11-09T17:53:29.640Z,100314.00
2022-11-09T17:55:57.878Z,100311.00
2022-11-09T17:58:27.081Z,100307.00
2022-11-09T18:00:54.924Z,100318.00
2022-11-09T18:03:23.183Z,100324.00
2022-11-09T18:05:50.870Z,100323.00
2022-11-09T18:08:18.923Z,100334.00
2022-11-09T18:10:50.423Z,100325.00
2022-11-09T18:13:18.107Z,100341.00
2022-11-09T18:15:47.273Z,100338.00
2022-11-09T18:18:14.945Z,100347.00
2022-11-09T18:20:42.631Z,100360.00
2022-11-09T18:23:10.367Z,100347.00
2022-11-09T18:25:38.241Z,100350.00
2022-11-09T18:28:06.277Z,100356.00
2022-11-09T18:30:34.019Z,100344.00
2022-11-09T18:33:03.569Z,100352.00
2022-11-09T18:35:31.287Z,100351.00
2022-11-09T18:37:58.983Z,100344.00
2022-11-09T18:40:26.671Z,100354.00
2022-11-09T18:42:54.347Z,100355.00
2022-11-09T18:45:22.360Z,100350.00
2022-11-09T18:47:50.444Z,100350.00
2022-11-09T18:50:20.039Z,100349.00
2022-11-09T18:52:47.689Z,100359.00
2022-11-09T18:55:15.487Z,100348.00
2022-11-09T18:57:43.132Z,100367.00
2022-11-09T19:00:12.182Z,100375.00
2022-11-09T19:02:40.076Z,100370.00
2022-11-09T19:05:09.292Z,100368.00
2022-11-09T19:07:38.306Z,100379.00
2022-11-09T19:10:06.609Z,100378.00
2022-11-09T19:12:34.275Z,100383.00
2022-11-09T19:15:02.086Z,100376.00
2022-11-09T19:17:29.841Z,100377.00
2022-11-09T19:19:57.478Z,100377.00
2022-11-09T19:22:28.634Z,100378.00
2022-11-09T19:24:57.727Z,100388.00
2022-11-09T19:27:28.707Z,100395.00
2022-11-09T19:29:56.415Z,100391.00
2022-11-09T19:32:24.131Z,100387.00
2022-11-09T19:34:51.916Z,100397.00
2022-11-09T19:37:19.629Z,100394.00
2022-11-09T19:39:47.665Z,100403.00
2022-11-09T19:42:16.757Z,100412.00
2022-11-09T19:44:44.643Z,100424.00
2022-11-09T19:47:12.385Z,100430.00
2022-11-09T19:49:40.099Z,100422.00
2022-11-09T19:52:08.312Z,100438.00
2022-11-09T19:54:35.992Z,100445.00
2022-11-09T19:57:03.713Z,100435.00
2022-11-09T19:59:33.177Z,100438.00
2022-11-09T20:02:00.840Z,100448.00
2022-11-09T20:04:29.114Z,100465.00
2022-11-09T20:06:56.904Z,100471.00
2022-11-09T20:09:24.619Z,100481.00
2022-11-09T20:12:09.986Z,100471.00
2022-11-09T20:14:39.074Z,100476.00
2022-11-09T20:17:06.795Z,100478.00
2022-11-09T20:19:34.758Z,100481.00
2022-11-09T20:22:02.520Z,100487.00
2022-11-09T20:24:30.218Z,100483.00
2022-11-09T20:26:57.949Z,100485.00
2022-11-09T20:29:25.513Z,100489.00
2022-11-09T20:31:54.477Z,100481.00
2022-11-09T20:34:22.159Z,100493.00
2022-11-09T20:36:49.889Z,100495.00
2022-11-09T20:39:18.068Z,100499.00
2022-11-09T20:41:45.835Z,100506.00
2022-11-09T20:44:13.545Z,100503.00
2022-11-09T20:46:41.229Z,100503.00
2022-11-09T20:49:10.594Z,100503.00
2022-11-09T20:51:38.405Z,100506.00
2022-11-09T20:54:07.734Z,100501.00
2022-11-09T20:56:37.262Z,100510.00
2022-11-09T20:59:05.819Z,100523.00
2022-11-09T21:01:33.772Z,100505.00
2022-11-09T21:04:01.453Z,100507.00
2022-11-09T21:06:31.244Z,100533.00
2022-11-09T21:09:00.864Z,100535.00
2022-11-09T21:11:35.541Z,100537.00
2022-11-09T21:14:04.043Z,100529.00
2022-11-09T21:16:31.761Z,100539.00
2022-11-09T21:18:59.405Z,100544.00
2022-11-09T21:21:29.755Z,100547.00
2022-11-09T21:24:18.819Z,100550.00
2022-11-09T21:27:04.248Z,100558.00
2022-11-09T21:29:49.546Z,100539.00
2022-11-09T21:32:17.776Z,100553.00
2022-11-09T21:34:45.523Z,100576.00
2022-11-09T21:37:14.944Z,100569.00
2022-11-09T21:39:44.608Z,100572.00
2022-11-09T21:42:13.384Z,100580.00
2022-11-09T21:44:41.250Z,100583.00
2022-11-09T21:47:09.382Z,100586.00
2022-11-09T21:49:37.085Z,100593.00
2022-11-09T21:52:04.936Z,100597.00
2022-11-09T21:54:32.638Z,100594.00
2022-11-09T21:57:01.728Z,100597.00
2022-11-09T21:59:29.934Z,100612.00
2022-11-09T22:01:57.813Z,100594.00
2022-11-09T22:04:25.534Z,100608.00
2022-11-09T22:06:53.482Z,100605.00
2022-11-09T22:09:21.202Z,100615.00
2022-11-09T22:12:06.549Z,100615.00
2022-11-09T22:14:53.422Z,100630.00
2022-11-09T22:17:21.256Z,100629.00
2022-11-09T22:20:06.419Z,100629.00
2022-11-09T22:22:36.176Z,100623.00
2022-11-09T22:25:04.204Z,100637.00
2022-11-09T22:27:32.664Z,100632.00
2022-11-09T22:30:01.703Z,100633.00
2022-11-09T22:32:29.350Z,100644.00
2022-11-09T22:34:57.036Z,100642.00
2022-11-09T22:37:24.752Z,100638.00
2022-11-09T22:39:52.477Z,100644.00
2022-11-09T22:42:20.324Z,100643.00
2022-11-09T22:44:48.040Z,100656.00
2022-11-09T22:47:17.060Z,100654.00
2022-11-09T22:49:44.740Z,100658.00
2022-11-09T22:52:12.398Z,100659.00
2022-11-09T22:54:40.097Z,100664.00
2022-11-09T22:57:07.873Z,100668.00
2022-11-09T22:59:35.570Z,100667.00
2022-11-09T23:02:03.274Z,100676.00
2022-11-09T23:04:32.393Z,100681.00
2022-11-09T23:07:00.089Z,100678.00
2022-11-09T23:09:27.870Z,100683.00
2022-11-09T23:11:56.318Z,100686.00
2022-11-09T23:14:44.183Z,100687.00
2022-11-09T23:17:25.760Z,100693.00
2022-11-09T23:19:54.834Z,100697.00
2022-11-09T23:22:22.483Z,100699.00
2022-11-09T23:25:07.796Z,100702.00
2022-11-09T23:27:35.510Z,100711.00
2022-11-09T23:30:03.166Z,100716.00
2022-11-09T23:32:30.806Z,100715.00
2022-11-09T23:34:59.816Z,100722.00
2022-11-09T23:37:27.540Z,100718.00
2022-11-09T23:39:55.201Z,100728.00
2022-11-09T23:42:22.964Z,100722.00
2022-11-09T23:44:50.757Z,100724.00
2022-11-09T23:47:18.480Z,100744.00
2022-11-09T23:49:46.203Z,100737.00
2022-11-09T23:52:15.244Z,100742.00
2022-11-09T23:54:43.175Z,100740.00
2022-11-09T23:57:10.855Z,100750.00
2022-11-09T23:59:38.589Z,100749.00
